createdAt,value
2023-05-04T00:00:00.261Z,21.20
2023-05-04T00:02:27.401Z,21.50
2023-05-04T00:04:54.881Z,21.60
2023-05-04T00:07:22.182Z,21.70
2023-05-04T00:09:50.848Z,22.20
2023-05-04T00:12:18.514Z,22.20
2023-05-04T00:14:45.467Z,22.40
2023-05-04T00:17:12.922Z,22.00
2023-05-04T00:19:42.341Z,21.90
2023-05-04T00:22:09.487Z,21.60
2023-05-04T00:24:36.488Z,21.50
2023-05-04T00:27:04.208Z,21.70
2023-05-04T00:29:31.566Z,22.00
2023-05-04T00:31:58.630Z,22.00
2023-05-04T00:34:25.818Z,21.70
2023-05-04T00:36:53.200Z,21.70
2023-05-04T00:39:20.170Z,21.70
2023-05-04T00:41:47.799Z,21.70
2023-05-04T00:44:14.743Z,21.60
2023-05-04T00:46:42.040Z,21.50
2023-05-04T00:49:10.144Z,21.30
2023-05-04T00:51:37.988Z,21.10
2023-05-04T00:54:05.535Z,21.20
2023-05-04T00:56:33.622Z,21.20
2023-05-04T00:59:00.648Z,21.20
2023-05-04T01:01:27.857Z,21.20
2023-05-04T01:03:56.138Z,21.40
2023-05-04T01:06:55.385Z,21.30
2023-05-04T01:09:38.393Z,20.90
2023-05-04T01:12:11.916Z,20.90
2023-05-04T01:14:40.100Z,20.80
2023-05-04T01:17:08.651Z,20.70
2023-05-04T01:19:35.921Z,20.70
2023-05-04T01:22:03.004Z,20.70
2023-05-04T01:24:31.627Z,21.00
2023-05-04T01:27:09.726Z,21.10
2023-05-04T01:30:09.223Z,21.20
2023-05-04T01:32:37.764Z,21.10
2023-05-04T01:35:06.641Z,21.00
2023-05-04T01:37:33.685Z,20.90
2023-05-04T01:40:00.755Z,20.90
2023-05-04T01:42:27.787Z,20.90
2023-05-04T01:44:54.736Z,20.80
2023-05-04T01:47:22.077Z,20.80
2023-05-04T01:49:49.100Z,20.70
2023-05-04T01:52:16.678Z,20.60
2023-05-04T01:54:43.721Z,20.60
2023-05-04T01:57:11.231Z,20.70
2023-05-04T01:59:38.171Z,20.70
2023-05-04T02:02:05.300Z,20.70
2023-05-04T02:04:32.825Z,20.80
2023-05-04T02:06:59.852Z,21.10
2023-05-04T02:09:27.123Z,21.10
2023-05-04T02:11:54.238Z,21.20
2023-05-04T02:14:21.268Z,21.20
2023-05-04T02:16:48.341Z,21.40
2023-05-04T02:19:15.418Z,21.30
2023-05-04T02:21:42.588Z,21.30
2023-05-04T02:24:09.756Z,21.30
2023-05-04T02:26:37.245Z,21.20
2023-05-04T02:29:05.164Z,21.20
2023-05-04T02:31:33.440Z,21.40
2023-05-04T02:34:01.674Z,21.60
2023-05-04T02:36:28.996Z,21.60
2023-05-04T02:38:56.153Z,21.60
2023-05-04T02:41:23.219Z,21.40
2023-05-04T02:43:50.250Z,21.20
2023-05-04T02:46:17.331Z,21.10
2023-05-04T02:48:44.462Z,21.20
2023-05-04T02:51:11.585Z,21.20
2023-05-04T02:53:38.549Z,21.10
2023-05-04T02:56:06.547Z,20.80
2023-05-04T02:58:33.534Z,21.10
2023-05-04T03:01:00.630Z,20.20
2023-05-04T03:03:27.951Z,20.40
2023-05-04T03:05:55.087Z,20.70
2023-05-04T03:08:22.010Z,21.00
2023-05-04T03:10:48.937Z,21.40
2023-05-04T03:13:16.805Z,21.20
2023-05-04T03:15:43.874Z,21.00
2023-05-04T03:18:10.980Z,20.80
2023-05-04T03:20:38.189Z,20.80
2023-05-04T03:23:06.086Z,20.70
2023-05-04T03:25:33.136Z,20.80
2023-05-04T03:28:03.263Z,20.90
2023-05-04T03:30:30.211Z,20.90
2023-05-04T03:32:57.282Z,21.10
2023-05-04T03:35:25.155Z,21.10
2023-05-04T03:37:52.412Z,21.20
2023-05-04T03:40:23.136Z,21.20
2023-05-04T03:42:54.315Z,21.40
2023-05-04T03:45:24.289Z,21.50
2023-05-04T03:47:51.340Z,21.40
2023-05-04T03:50:18.679Z,21.40
2023-05-04T03:52:47.084Z,21.40
2023-05-04T03:55:14.293Z,21.50
2023-05-04T03:57:41.618Z,21.70
2023-05-04T04:00:09.490Z,21.90
2023-05-04T04:02:36.774Z,22.20
2023-05-04T04:05:04.011Z,22.20
2023-05-04T04:07:31.206Z,22.30
2023-05-04T04:09:58.403Z,22.20
2023-05-04T04:12:25.501Z,21.90
2023-05-04T04:14:52.624Z,21.90
2023-05-04T04:17:19.697Z,22.10
2023-05-04T04:19:46.877Z,22.10
2023-05-04T04:22:13.887Z,22.10
2023-05-04T04:24:41.105Z,22.00
2023-05-04T04:27:08.140Z,22.00
2023-05-04T04:29:35.778Z,21.90
2023-05-04T04:32:03.614Z,22.00
2023-05-04T04:34:30.700Z,22.10
2023-05-04T04:36:57.854Z,22.10
2023-05-04T04:39:25.089Z,22.10
2023-05-04T04:41:52.412Z,22.30
2023-05-04T04:44:20.841Z,22.10
2023-05-04T04:46:48.611Z,22.00
2023-05-04T04:49:18.038Z,21.60
2023-05-04T04:51:45.192Z,21.80
2023-05-04T04:54:12.216Z,21.30
2023-05-04T04:56:40.874Z,21.30
2023-05-04T04:59:08.024Z,21.00
2023-05-04T05:01:35.058Z,20.90
2023-05-04T05:04:02.168Z,20.80
2023-05-04T05:06:29.437Z,20.70
2023-05-04T05:08:57.882Z,20.50
2023-05-04T05:11:25.008Z,20.70
2023-05-04T05:13:52.060Z,20.70
2023-05-04T05:16:19.277Z,20.60
2023-05-04T05:18:46.962Z,20.40
2023-05-04T05:21:14.835Z,20.50
2023-05-04T05:23:44.330Z,20.60
2023-05-04T05:26:11.923Z,20.80
2023-05-04T05:28:39.604Z,21.10
2023-05-04T05:31:07.187Z,21.40
2023-05-04T05:33:34.310Z,21.60
2023-05-04T05:36:01.478Z,21.60
2023-05-04T05:38:28.488Z,21.30
2023-05-04T05:40:55.688Z,21.40
2023-05-04T05:43:22.889Z,21.60
2023-05-04T05:45:50.127Z,21.10
2023-05-04T05:48:17.141Z,21.10
2023-05-04T05:50:44.409Z,21.50
2023-05-04T05:53:11.740Z,21.30
2023-05-04T05:55:38.699Z,21.20
2023-05-04T05:58:06.185Z,20.80
2023-05-04T06:00:33.200Z,20.50
2023-05-04T06:03:00.498Z,20.70
2023-05-04T06:05:27.935Z,21.00
2023-05-04T06:07:55.302Z,20.90
2023-05-04T06:10:22.530Z,21.20
2023-05-04T06:12:49.598Z,20.70
2023-05-04T06:15:16.847Z,20.50
2023-05-04T06:17:43.875Z,20.70
2023-05-04T06:20:11.326Z,20.30
2023-05-04T06:22:38.403Z,20.40
2023-05-04T06:25:08.173Z,20.00
2023-05-04T06:27:35.697Z,20.00
2023-05-04T06:30:02.732Z,20.10
2023-05-04T06:32:29.863Z,19.60
2023-05-04T06:34:57.216Z,19.80
2023-05-04T06:37:24.168Z,20.00
2023-05-04T06:39:51.375Z,19.90
2023-05-04T06:42:18.429Z,19.90
2023-05-04T06:44:45.627Z,19.50
2023-05-04T06:47:12.633Z,19.10
2023-05-04T06:49:39.710Z,19.10
2023-05-04T06:52:06.788Z,19.20
2023-05-04T06:54:33.787Z,18.50
2023-05-04T06:57:03.663Z,18.30
2023-05-04T06:59:30.744Z,18.80
2023-05-04T07:01:57.987Z,18.80
2023-05-04T07:04:25.075Z,18.50
2023-05-04T07:06:52.368Z,18.10
2023-05-04T07:09:20.056Z,17.00
2023-05-04T07:11:48.793Z,17.40
2023-05-04T07:14:16.164Z,17.50
2023-05-04T07:16:43.383Z,17.00
2023-05-04T07:19:10.682Z,17.00
2023-05-04T07:21:38.000Z,17.00
2023-05-04T07:24:06.990Z,16.70
2023-05-04T07:26:34.259Z,16.40
2023-05-04T07:29:01.344Z,16.00
2023-05-04T07:31:30.278Z,16.10
2023-05-04T07:33:57.734Z,15.80
2023-05-04T07:36:26.667Z,16.30
2023-05-04T07:38:54.387Z,16.50
2023-05-04T07:41:21.739Z,15.90
2023-05-04T07:43:49.113Z,16.10
2023-05-04T07:46:16.581Z,15.80
2023-05-04T07:48:43.678Z,15.40
2023-05-04T07:51:14.867Z,15.80
2023-05-04T07:53:43.314Z,15.20
2023-05-04T07:56:12.420Z,15.10
2023-05-04T07:58:39.679Z,15.00
2023-05-04T08:01:06.754Z,14.50
2023-05-04T08:03:33.992Z,14.60
2023-05-04T08:06:01.260Z,15.10
2023-05-04T08:08:28.174Z,15.60
2023-05-04T08:10:59.789Z,15.60
2023-05-04T08:13:32.042Z,15.80
2023-05-04T08:16:01.421Z,15.50
2023-05-04T08:18:28.387Z,15.10
2023-05-04T08:20:55.477Z,15.10
2023-05-04T08:23:22.472Z,15.30
2023-05-04T08:25:49.444Z,14.90
2023-05-04T08:28:16.478Z,13.90
2023-05-04T08:30:43.547Z,14.00
2023-05-04T08:33:10.664Z,14.80
2023-05-04T08:35:38.130Z,14.70
2023-05-04T08:38:05.227Z,15.00
2023-05-04T08:40:33.797Z,14.60
2023-05-04T08:43:01.171Z,14.50
2023-05-04T08:45:29.387Z,13.80
2023-05-04T08:47:56.377Z,13.60
2023-05-04T08:50:23.986Z,14.40
2023-05-04T08:52:52.381Z,14.70
2023-05-04T08:55:20.239Z,15.10
2023-05-04T08:57:48.563Z,15.00
2023-05-04T09:00:18.070Z,14.50
2023-05-04T09:02:48.254Z,14.00
2023-05-04T09:05:15.622Z,13.90
2023-05-04T09:07:42.701Z,13.90
2023-05-04T09:10:11.289Z,14.00
2023-05-04T09:12:38.400Z,14.40
2023-05-04T09:15:19.369Z,14.60
2023-05-04T09:18:06.899Z,14.30
2023-05-04T09:20:47.507Z,15.00
2023-05-04T09:23:14.711Z,15.10
2023-05-04T09:25:52.377Z,15.50
2023-05-04T09:28:21.675Z,15.10
2023-05-04T09:30:51.726Z,14.80
2023-05-04T09:33:26.656Z,14.40
2023-05-04T09:35:53.711Z,14.00
2023-05-04T09:38:29.857Z,13.60
2023-05-04T09:40:57.202Z,13.80
2023-05-04T09:43:27.157Z,13.10
2023-05-04T09:45:54.539Z,13.70
2023-05-04T09:48:25.871Z,14.20
2023-05-04T09:50:57.823Z,14.70
2023-05-04T09:53:29.394Z,14.40
2023-05-04T09:56:14.872Z,14.30
2023-05-04T09:58:43.107Z,14.20
2023-05-04T10:01:10.471Z,14.10
2023-05-04T10:03:37.917Z,13.90
2023-05-04T10:06:06.165Z,13.80
2023-05-04T10:08:33.541Z,13.60
2023-05-04T10:11:00.607Z,13.40
2023-05-04T10:13:28.312Z,13.60
2023-05-04T10:16:01.472Z,14.00
2023-05-04T10:18:40.422Z,14.10
2023-05-04T10:21:28.926Z,14.10
2023-05-04T10:24:22.831Z,14.20
2023-05-04T10:27:15.209Z,14.00
2023-05-04T10:29:42.981Z,14.50
2023-05-04T10:32:21.532Z,14.50
2023-05-04T10:34:49.070Z,14.50
2023-05-04T10:37:18.439Z,14.20
2023-05-04T10:39:55.216Z,14.10
2023-05-04T10:42:22.680Z,13.50
2023-05-04T10:44:57.257Z,14.00
2023-05-04T10:47:35.622Z,13.50
2023-05-04T10:50:08.145Z,13.60
2023-05-04T10:52:52.117Z,13.10
2023-05-04T10:55:20.395Z,13.80
2023-05-04T10:57:57.984Z,13.60
2023-05-04T11:00:39.412Z,14.20
2023-05-04T11:03:12.293Z,14.00
2023-05-04T11:05:47.080Z,13.80
2023-05-04T11:08:24.873Z,13.90
2023-05-04T11:11:07.119Z,13.50
2023-05-04T11:13:36.213Z,13.60
2023-05-04T11:16:03.266Z,14.20
2023-05-04T11:18:31.934Z,13.90
2023-05-04T11:20:58.973Z,14.20
2023-05-04T11:23:26.263Z,14.20
2023-05-04T11:25:53.908Z,13.90
2023-05-04T11:28:31.503Z,13.90
2023-05-04T11:30:58.894Z,13.80
2023-05-04T11:33:26.987Z,13.90
2023-05-04T11:36:03.901Z,15.10
2023-05-04T11:38:31.101Z,14.80
2023-05-04T11:40:58.174Z,15.00
2023-05-04T11:43:26.885Z,15.10
2023-05-04T11:45:56.033Z,14.80
2023-05-04T11:48:23.216Z,14.90
2023-05-04T11:50:50.798Z,15.10
2023-05-04T11:53:21.692Z,14.90
2023-05-04T11:55:49.095Z,15.30
2023-05-04T11:58:23.462Z,15.60
2023-05-04T12:00:58.826Z,15.50
2023-05-04T12:03:35.950Z,15.50
2023-05-04T12:06:10.876Z,15.70
2023-05-04T12:08:42.454Z,15.80
2023-05-04T12:11:28.900Z,16.10
2023-05-04T12:14:17.209Z,16.40
2023-05-04T12:16:55.043Z,16.40
2023-05-04T12:19:22.019Z,16.40
2023-05-04T12:21:51.988Z,16.50
2023-05-04T12:24:22.592Z,16.90
2023-05-04T12:26:49.967Z,16.90
2023-05-04T12:29:17.268Z,17.00
2023-05-04T12:31:44.391Z,16.60
2023-05-04T12:34:11.561Z,16.40
2023-05-04T12:36:38.559Z,16.60
2023-05-04T12:39:05.626Z,16.50
2023-05-04T12:41:32.704Z,16.30
2023-05-04T12:43:59.781Z,16.20
2023-05-04T12:46:26.929Z,16.50
2023-05-04T12:48:53.914Z,16.10
2023-05-04T12:51:20.995Z,16.10
2023-05-04T12:53:48.402Z,16.40
2023-05-04T12:56:15.402Z,16.30
2023-05-04T12:58:42.392Z,16.60
2023-05-04T13:01:09.521Z,16.70
2023-05-04T13:03:36.743Z,16.80
2023-05-04T13:06:05.145Z,16.60
2023-05-04T13:08:33.630Z,16.90
2023-05-04T13:11:00.843Z,16.80
2023-05-04T13:13:29.689Z,16.80
2023-05-04T13:15:57.463Z,17.00
2023-05-04T13:18:27.308Z,17.10
2023-05-04T13:20:56.068Z,17.10
2023-05-04T13:23:23.813Z,17.00
2023-05-04T13:25:51.544Z,17.10
2023-05-04T13:28:19.010Z,17.10
2023-05-04T13:30:46.530Z,17.40
2023-05-04T13:33:28.142Z,17.00
2023-05-04T13:35:58.513Z,16.90
2023-05-04T13:38:26.008Z,17.40
2023-05-04T13:40:53.201Z,17.30
2023-05-04T13:43:21.253Z,17.30
2023-05-04T13:45:48.548Z,17.60
2023-05-04T13:48:15.546Z,17.90
2023-05-04T13:50:42.740Z,18.00
2023-05-04T13:53:12.797Z,18.00
2023-05-04T13:55:39.737Z,18.10
2023-05-04T13:58:06.846Z,18.00
2023-05-04T14:00:33.750Z,18.10
2023-05-04T14:03:00.934Z,17.90
2023-05-04T14:05:28.037Z,17.80
2023-05-04T14:07:55.184Z,17.40
2023-05-04T14:10:22.190Z,17.20
2023-05-04T14:12:49.449Z,17.40
2023-05-04T14:15:16.867Z,17.60
2023-05-04T14:17:43.904Z,17.70
2023-05-04T14:20:11.330Z,17.50
2023-05-04T14:22:41.268Z,17.40
2023-05-04T14:25:08.977Z,17.30
2023-05-04T14:27:36.269Z,17.20
2023-05-04T14:30:04.497Z,17.20
2023-05-04T14:32:31.581Z,17.60
2023-05-04T14:35:08.170Z,17.70
2023-05-04T14:37:37.561Z,17.80
2023-05-04T14:40:10.270Z,17.70
2023-05-04T14:42:38.444Z,17.90
2023-05-04T14:45:07.159Z,18.00
2023-05-04T14:47:34.799Z,17.90
2023-05-04T14:50:02.419Z,17.80
2023-05-04T14:52:29.469Z,18.10
2023-05-04T14:54:56.603Z,18.20
2023-05-04T14:57:23.778Z,18.60
2023-05-04T14:59:51.254Z,18.30
2023-05-04T15:02:19.406Z,18.00
2023-05-04T15:04:47.214Z,17.80
2023-05-04T15:07:20.631Z,18.00
2023-05-04T15:09:47.842Z,17.80
2023-05-04T15:12:14.819Z,17.70
2023-05-04T15:14:42.074Z,18.10
2023-05-04T15:17:09.434Z,18.10
2023-05-04T15:19:40.090Z,18.20
2023-05-04T15:22:07.604Z,18.40
2023-05-04T15:24:34.754Z,19.10
2023-05-04T15:27:02.207Z,18.30
2023-05-04T15:29:29.323Z,18.30
2023-05-04T15:31:56.670Z,18.50
2023-05-04T15:34:23.708Z,18.70
2023-05-04T15:36:50.692Z,18.20
2023-05-04T15:39:17.927Z,17.90
2023-05-04T15:41:45.014Z,18.20
2023-05-04T15:44:12.208Z,18.20
2023-05-04T15:46:39.330Z,18.00
2023-05-04T15:49:06.459Z,17.90
2023-05-04T15:51:33.597Z,18.00
2023-05-04T15:54:00.807Z,18.10
2023-05-04T15:56:28.563Z,17.90
2023-05-04T15:58:58.418Z,17.90
2023-05-04T16:01:25.691Z,18.00
2023-05-04T16:03:55.615Z,18.10
2023-05-04T16:06:24.290Z,18.00
2023-05-04T16:08:51.404Z,18.30
2023-05-04T16:11:18.565Z,18.20
2023-05-04T16:13:46.504Z,18.10
2023-05-04T16:16:13.616Z,18.50
2023-05-04T16:18:40.751Z,18.40
2023-05-04T16:21:09.044Z,18.40
2023-05-04T16:23:37.210Z,18.60
2023-05-04T16:26:04.619Z,18.60
2023-05-04T16:28:31.797Z,18.60
2023-05-04T16:30:58.947Z,18.60
2023-05-04T16:33:27.777Z,18.70
2023-05-04T16:35:54.938Z,18.30
2023-05-04T16:38:21.982Z,18.20
2023-05-04T16:40:49.074Z,18.20
2023-05-04T16:43:16.604Z,18.20
2023-05-04T16:45:43.646Z,18.20
2023-05-04T16:48:10.762Z,18.00
2023-05-04T16:50:38.829Z,18.00
2023-05-04T16:53:05.876Z,18.10
2023-05-04T16:55:32.812Z,18.00
2023-05-04T16:58:00.285Z,17.90
2023-05-04T17:00:29.299Z,18.10
2023-05-04T17:02:56.340Z,18.10
2023-05-04T17:05:24.489Z,18.20
2023-05-04T17:07:51.795Z,18.20
2023-05-04T17:10:18.949Z,18.20
2023-05-04T17:12:46.159Z,18.00
2023-05-04T17:15:13.550Z,18.00
2023-05-04T17:17:41.781Z,18.10
2023-05-04T17:20:15.072Z,17.90
2023-05-04T17:22:43.645Z,17.80
2023-05-04T17:25:12.233Z,18.00
2023-05-04T17:27:39.531Z,18.20
2023-05-04T17:30:08.687Z,18.10
2023-05-04T17:32:37.430Z,18.20
2023-05-04T17:35:12.266Z,18.10
2023-05-04T17:37:47.738Z,18.30
2023-05-04T17:40:14.814Z,18.40
2023-05-04T17:42:41.863Z,18.50
2023-05-04T17:45:09.230Z,18.40
2023-05-04T17:47:36.357Z,18.20
2023-05-04T17:50:04.049Z,18.30
2023-05-04T17:52:32.517Z,18.40
2023-05-04T17:54:59.580Z,18.10
2023-05-04T17:57:26.774Z,18.20
2023-05-04T17:59:57.245Z,17.90
2023-05-04T18:02:24.406Z,18.30
2023-05-04T18:04:53.475Z,18.10
2023-05-04T18:07:20.663Z,18.20
2023-05-04T18:09:47.655Z,18.50
2023-05-04T18:12:14.827Z,18.50
2023-05-04T18:14:41.769Z,18.30
2023-05-04T18:17:08.871Z,18.50
2023-05-04T18:19:37.202Z,18.80
2023-05-04T18:22:04.273Z,18.50
2023-05-04T18:24:33.827Z,18.60
2023-05-04T18:27:02.198Z,18.40
2023-05-04T18:29:29.292Z,18.40
2023-05-04T18:31:56.351Z,18.50
2023-05-04T18:34:23.676Z,19.20
2023-05-04T18:36:51.022Z,18.70
2023-05-04T18:39:19.679Z,19.10
2023-05-04T18:41:46.847Z,19.20
2023-05-04T18:44:14.320Z,19.20
2023-05-04T18:46:41.541Z,18.90
2023-05-04T18:49:09.518Z,18.90
2023-05-04T18:51:36.943Z,18.40
2023-05-04T18:54:04.130Z,18.70
2023-05-04T18:56:31.169Z,18.50
2023-05-04T18:58:58.117Z,18.40
2023-05-04T19:01:25.170Z,18.50
2023-05-04T19:03:52.262Z,18.80
2023-05-04T19:06:19.441Z,19.50
2023-05-04T19:08:46.406Z,18.90
2023-05-04T19:11:13.385Z,19.20
2023-05-04T19:13:41.617Z,19.00
2023-05-04T19:16:12.631Z,18.90
2023-05-04T19:18:39.862Z,18.80
2023-05-04T19:21:07.001Z,18.90
2023-05-04T19:23:34.308Z,18.90
2023-05-04T19:26:04.267Z,19.10
2023-05-04T19:28:31.354Z,19.10
2023-05-04T19:31:00.017Z,19.20
2023-05-04T19:33:40.477Z,19.00
2023-05-04T19:36:14.487Z,19.10
2023-05-04T19:38:41.507Z,19.10
2023-05-04T19:41:09.381Z,19.00
2023-05-04T19:43:38.724Z,18.90
2023-05-04T19:46:05.870Z,18.90
2023-05-04T19:48:34.100Z,19.40
2023-05-04T19:51:02.262Z,19.70
2023-05-04T19:53:29.864Z,20.00
2023-05-04T19:55:57.024Z,20.00
2023-05-04T19:58:28.433Z,19.90
2023-05-04T20:00:55.566Z,19.60
2023-05-04T20:03:22.599Z,19.80
2023-05-04T20:05:51.476Z,19.70
2023-05-04T20:08:19.036Z,19.60
2023-05-04T20:10:46.990Z,19.50
2023-05-04T20:13:14.104Z,19.70
2023-05-04T20:15:42.821Z,19.70
2023-05-04T20:18:09.833Z,19.60
2023-05-04T20:20:37.024Z,19.60
2023-05-04T20:23:04.759Z,19.70
2023-05-04T20:25:32.647Z,19.80
2023-05-04T20:27:59.689Z,19.70
2023-05-04T20:30:28.864Z,19.80
2023-05-04T20:32:56.125Z,19.70
2023-05-04T20:35:23.520Z,19.80
2023-05-04T20:37:50.664Z,19.70
2023-05-04T20:40:17.787Z,19.80
2023-05-04T20:42:44.818Z,19.70
2023-05-04T20:45:11.998Z,19.60
2023-05-04T20:47:39.131Z,19.60
2023-05-04T20:50:08.264Z,19.90
2023-05-04T20:52:35.445Z,20.10
2023-05-04T20:55:02.646Z,20.20
2023-05-04T20:57:29.772Z,20.50
2023-05-04T20:59:56.951Z,20.60
2023-05-04T21:02:24.070Z,20.50
2023-05-04T21:04:51.500Z,20.60
2023-05-04T21:07:19.153Z,20.70
2023-05-04T21:09:46.244Z,21.10
2023-05-04T21:12:13.313Z,21.60
2023-05-04T21:14:40.454Z,21.60
2023-05-04T21:17:07.427Z,21.70
2023-05-04T21:19:34.484Z,22.00
2023-05-04T21:22:01.611Z,22.40
2023-05-04T21:24:28.568Z,23.70
2023-05-04T21:26:55.635Z,24.50
2023-05-04T21:29:23.190Z,24.40
2023-05-04T21:31:50.317Z,23.80
2023-05-04T21:34:17.560Z,23.50
2023-05-04T21:36:44.754Z,23.40
2023-05-04T21:39:12.663Z,23.20
2023-05-04T21:41:39.797Z,23.20
2023-05-04T21:44:06.861Z,23.50
2023-05-04T21:46:33.911Z,23.90
2023-05-04T21:49:01.495Z,24.70
2023-05-04T21:51:29.003Z,24.50
2023-05-04T21:53:56.043Z,24.20
2023-05-04T21:56:23.221Z,23.80
2023-05-04T21:58:50.636Z,23.40
2023-05-04T22:01:18.412Z,23.20
2023-05-04T22:03:46.040Z,23.10
2023-05-04T22:06:13.883Z,23.60
2023-05-04T22:08:40.937Z,23.20
2023-05-04T22:11:09.239Z,23.20
2023-05-04T22:13:36.430Z,23.20
2023-05-04T22:16:03.564Z,23.40
2023-05-04T22:18:30.785Z,23.70
2023-05-04T22:20:57.991Z,23.70
2023-05-04T22:23:25.337Z,23.70
2023-05-04T22:25:52.361Z,23.60
2023-05-04T22:28:19.409Z,23.80
2023-05-04T22:30:46.933Z,23.90
2023-05-04T22:33:13.937Z,24.60
2023-05-04T22:35:40.909Z,23.80
2023-05-04T22:38:08.035Z,23.70
2023-05-04T22:40:35.026Z,23.70
2023-05-04T22:43:02.250Z,23.50
2023-05-04T22:45:30.645Z,23.80
2023-05-04T22:47:57.774Z,24.40
2023-05-04T22:50:24.943Z,25.00
2023-05-04T22:52:51.943Z,25.70
2023-05-04T22:55:19.086Z,25.50
2023-05-04T22:57:46.135Z,25.00
2023-05-04T23:00:13.670Z,24.10
2023-05-04T23:02:40.872Z,23.70
2023-05-04T23:05:09.116Z,23.40
2023-05-04T23:07:36.426Z,23.40
2023-05-04T23:10:05.086Z,23.30
2023-05-04T23:12:32.469Z,23.70
2023-05-04T23:14:59.702Z,23.90
2023-05-04T23:17:26.658Z,24.30
2023-05-04T23:19:53.800Z,24.70
2023-05-04T23:22:20.863Z,26.10
2023-05-04T23:24:47.797Z,26.30
2023-05-04T23:27:15.014Z,26.50
2023-05-04T23:29:41.975Z,26.40
2023-05-04T23:32:09.118Z,26.70
2023-05-04T23:34:36.413Z,27.00
2023-05-04T23:37:03.459Z,27.90
2023-05-04T23:39:30.466Z,28.50
2023-05-04T23:41:57.498Z,29.20
2023-05-04T23:44:24.649Z,29.20
2023-05-04T23:46:51.582Z,28.40
2023-05-04T23:49:18.906Z,27.40
2023-05-04T23:51:45.899Z,26.60
2023-05-04T23:54:14.000Z,26.20
2023-05-04T23:56:41.208Z,26.40
2023-05-04T23:59:08.358Z,26.20
